sensor_id;sensor_type;location;lat;lon;timestamp;temperature;humidity
7844;DHT22;3967;48.702;9.326;2024-01-30T00:00:27;3.90;98.20
7844;DHT22;3967;48.702;9.326;2024-01-30T00:02:54;3.90;98.20
7844;DHT22;3967;48.702;9.326;2024-01-30T00:05:21;3.90;98.30
7844;DHT22;3967;48.702;9.326;2024-01-30T00:07:47;3.80;98.40
7844;DHT22;3967;48.702;9.326;2024-01-30T00:10:14;3.80;98.60
7844;DHT22;3967;48.702;9.326;2024-01-30T00:12:41;3.70;98.80
7844;DHT22;3967;48.702;9.326;2024-01-30T00:15:08;3.80;99.10
7844;DHT22;3967;48.702;9.326;2024-01-30T00:17:37;3.70;99.20
7844;DHT22;3967;48.702;9.326;2024-01-30T00:20:04;3.80;99.20
7844;DHT22;3967;48.702;9.326;2024-01-30T00:22:35;3.80;99.20
7844;DHT22;3967;48.702;9.326;2024-01-30T00:25:02;3.80;99.10
7844;DHT22;3967;48.702;9.326;2024-01-30T00:27:29;3.80;99.20
7844;DHT22;3967;48.702;9.326;2024-01-30T00:29:56;3.80;99.20
7844;DHT22;3967;48.702;9.326;2024-01-30T00:32:23;3.80;99.40
7844;DHT22;3967;48.702;9.326;2024-01-30T00:34:50;3.80;99.40
7844;DHT22;3967;48.702;9.326;2024-01-30T00:37:16;3.80;99.20
7844;DHT22;3967;48.702;9.326;2024-01-30T00:39:43;3.70;99.10
7844;DHT22;3967;48.702;9.326;2024-01-30T00:42:10;3.70;99.20
7844;DHT22;3967;48.702;9.326;2024-01-30T00:44:37;3.70;99.40
7844;DHT22;3967;48.702;9.326;2024-01-30T00:47:05;3.70;99.40
7844;DHT22;3967;48.702;9.326;2024-01-30T00:49:32;3.70;99.60
7844;DHT22;3967;48.702;9.326;2024-01-30T00:51:59;3.60;99.40
7844;DHT22;3967;48.702;9.326;2024-01-30T00:54:26;3.70;99.60
7844;DHT22;3967;48.702;9.326;2024-01-30T00:56:53;3.50;99.50
7844;DHT22;3967;48.702;9.326;2024-01-30T00:59:20;3.50;99.70
7844;DHT22;3967;48.702;9.326;2024-01-30T01:01:46;3.50;99.90
7844;DHT22;3967;48.702;9.326;2024-01-30T01:04:13;3.40;99.70
7844;DHT22;3967;48.702;9.326;2024-01-30T01:06:40;3.30;99.90
7844;DHT22;3967;48.702;9.326;2024-01-30T01:09:11;3.30;99.90
7844;DHT22;3967;48.702;9.326;2024-01-30T01:11:39;3.20;99.90
7844;DHT22;3967;48.702;9.326;2024-01-30T01:14:05;3.10;99.90
7844;DHT22;3967;48.702;9.326;2024-01-30T01:16:33;3.10;99.90
7844;DHT22;3967;48.702;9.326;2024-01-30T01:19:00;3.10;99.90
7844;DHT22;3967;48.702;9.326;2024-01-30T01:21:27;3.10;99.90
7844;DHT22;3967;48.702;9.326;2024-01-30T01:23:54;3.10;99.90
7844;DHT22;3967;48.702;9.326;2024-01-30T01:26:21;3.10;99.90
7844;DHT22;3967;48.702;9.326;2024-01-30T01:28:48;2.90;99.90
7844;DHT22;3967;48.702;9.326;2024-01-30T01:31:15;2.90;99.90
7844;DHT22;3967;48.702;9.326;2024-01-30T01:33:42;3.00;99.90
7844;DHT22;3967;48.702;9.326;2024-01-30T01:36:09;2.80;99.90
7844;DHT22;3967;48.702;9.326;2024-01-30T01:38:36;2.80;99.90
7844;DHT22;3967;48.702;9.326;2024-01-30T01:41:03;2.70;99.90
7844;DHT22;3967;48.702;9.326;2024-01-30T01:43:29;2.80;99.90
7844;DHT22;3967;48.702;9.326;2024-01-30T01:45:56;2.80;99.90
7844;DHT22;3967;48.702;9.326;2024-01-30T01:48:23;2.90;99.90
7844;DHT22;3967;48.702;9.326;2024-01-30T01:50:51;2.90;99.90
7844;DHT22;3967;48.702;9.326;2024-01-30T01:53:18;2.90;99.90
7844;DHT22;3967;48.702;9.326;2024-01-30T01:55:45;2.90;99.90
7844;DHT22;3967;48.702;9.326;2024-01-30T01:58:13;2.90;99.90
7844;DHT22;3967;48.702;9.326;2024-01-30T02:00:40;2.90;99.90
7844;DHT22;3967;48.702;9.326;2024-01-30T02:03:10;2.90;99.90
7844;DHT22;3967;48.702;9.326;2024-01-30T02:05:39;2.90;99.90
7844;DHT22;3967;48.702;9.326;2024-01-30T02:08:06;2.90;99.90
7844;DHT22;3967;48.702;9.326;2024-01-30T02:10:35;3.00;99.90
7844;DHT22;3967;48.702;9.326;2024-01-30T02:13:01;2.90;99.90
7844;DHT22;3967;48.702;9.326;2024-01-30T02:15:28;3.00;99.90
7844;DHT22;3967;48.702;9.326;2024-01-30T02:17:55;3.00;99.90
7844;DHT22;3967;48.702;9.326;2024-01-30T02:20:24;2.90;99.90
7844;DHT22;3967;48.702;9.326;2024-01-30T02:22:54;2.70;99.90
7844;DHT22;3967;48.702;9.326;2024-01-30T02:25:40;2.70;99.90
7844;DHT22;3967;48.702;9.326;2024-01-30T02:28:13;2.70;99.90
7844;DHT22;3967;48.702;9.326;2024-01-30T02:30:42;2.80;99.90
7844;DHT22;3967;48.702;9.326;2024-01-30T02:33:09;2.80;99.90
7844;DHT22;3967;48.702;9.326;2024-01-30T02:35:36;2.80;99.90
7844;DHT22;3967;48.702;9.326;2024-01-30T02:38:02;2.80;99.90
7844;DHT22;3967;48.702;9.326;2024-01-30T02:40:30;2.80;99.90
7844;DHT22;3967;48.702;9.326;2024-01-30T02:42:58;2.90;99.90
7844;DHT22;3967;48.702;9.326;2024-01-30T02:45:25;2.80;99.90
7844;DHT22;3967;48.702;9.326;2024-01-30T02:47:52;2.90;99.90
7844;DHT22;3967;48.702;9.326;2024-01-30T02:50:19;2.90;99.90
7844;DHT22;3967;48.702;9.326;2024-01-30T02:52:46;2.90;99.90
7844;DHT22;3967;48.702;9.326;2024-01-30T02:55:13;2.90;99.90
7844;DHT22;3967;48.702;9.326;2024-01-30T02:57:40;2.80;99.90
7844;DHT22;3967;48.702;9.326;2024-01-30T03:00:07;2.70;99.90
7844;DHT22;3967;48.702;9.326;2024-01-30T03:02:36;2.80;99.90
7844;DHT22;3967;48.702;9.326;2024-01-30T03:05:05;2.70;99.90
7844;DHT22;3967;48.702;9.326;2024-01-30T03:07:31;2.70;99.90
7844;DHT22;3967;48.702;9.326;2024-01-30T03:09:59;2.70;99.90
7844;DHT22;3967;48.702;9.326;2024-01-30T03:12:26;2.80;99.90
7844;DHT22;3967;48.702;9.326;2024-01-30T03:14:53;2.80;99.90
7844;DHT22;3967;48.702;9.326;2024-01-30T03:17:20;2.70;99.90
7844;DHT22;3967;48.702;9.326;2024-01-30T03:19:46;2.70;99.90
7844;DHT22;3967;48.702;9.326;2024-01-30T03:22:13;2.70;99.90
7844;DHT22;3967;48.702;9.326;2024-01-30T03:24:40;2.70;99.90
7844;DHT22;3967;48.702;9.326;2024-01-30T03:27:07;2.70;99.90
7844;DHT22;3967;48.702;9.326;2024-01-30T03:29:34;2.70;99.90
7844;DHT22;3967;48.702;9.326;2024-01-30T03:32:01;2.60;99.90
7844;DHT22;3967;48.702;9.326;2024-01-30T03:34:28;2.70;99.90
7844;DHT22;3967;48.702;9.326;2024-01-30T03:36:54;2.70;99.90
7844;DHT22;3967;48.702;9.326;2024-01-30T03:39:21;2.70;99.90
7844;DHT22;3967;48.702;9.326;2024-01-30T03:41:48;2.70;99.90
7844;DHT22;3967;48.702;9.326;2024-01-30T03:44:15;2.70;99.90
7844;DHT22;3967;48.702;9.326;2024-01-30T03:46:41;2.60;99.90
7844;DHT22;3967;48.702;9.326;2024-01-30T03:49:09;2.70;99.90
7844;DHT22;3967;48.702;9.326;2024-01-30T03:51:36;2.70;99.90
7844;DHT22;3967;48.702;9.326;2024-01-30T03:54:03;2.60;99.90
7844;DHT22;3967;48.702;9.326;2024-01-30T03:56:29;2.60;99.90
7844;DHT22;3967;48.702;9.326;2024-01-30T03:58:56;2.50;99.90
7844;DHT22;3967;48.702;9.326;2024-01-30T04:01:23;2.40;99.90
7844;DHT22;3967;48.702;9.326;2024-01-30T04:03:50;2.40;99.90
7844;DHT22;3967;48.702;9.326;2024-01-30T04:06:17;2.40;99.90
7844;DHT22;3967;48.702;9.326;2024-01-30T04:08:43;2.40;99.90
7844;DHT22;3967;48.702;9.326;2024-01-30T04:11:10;2.40;99.90
7844;DHT22;3967;48.702;9.326;2024-01-30T04:13:37;2.50;99.90
7844;DHT22;3967;48.702;9.326;2024-01-30T04:16:04;2.40;99.90
7844;DHT22;3967;48.702;9.326;2024-01-30T04:18:31;2.40;99.90
7844;DHT22;3967;48.702;9.326;2024-01-30T04:20:58;2.40;99.90
7844;DHT22;3967;48.702;9.326;2024-01-30T04:23:25;2.40;99.90
7844;DHT22;3967;48.702;9.326;2024-01-30T04:25:52;2.40;99.90
7844;DHT22;3967;48.702;9.326;2024-01-30T04:28:19;2.40;99.90
7844;DHT22;3967;48.702;9.326;2024-01-30T04:30:45;2.50;99.90
7844;DHT22;3967;48.702;9.326;2024-01-30T04:33:12;2.50;99.90
7844;DHT22;3967;48.702;9.326;2024-01-30T04:35:39;2.40;99.90
7844;DHT22;3967;48.702;9.326;2024-01-30T04:38:06;2.30;99.90
7844;DHT22;3967;48.702;9.326;2024-01-30T04:40:32;2.30;99.90
7844;DHT22;3967;48.702;9.326;2024-01-30T04:42:59;2.30;99.90
7844;DHT22;3967;48.702;9.326;2024-01-30T04:45:26;2.20;99.90
7844;DHT22;3967;48.702;9.326;2024-01-30T04:47:53;2.20;99.90
7844;DHT22;3967;48.702;9.326;2024-01-30T04:50:20;2.20;99.90
7844;DHT22;3967;48.702;9.326;2024-01-30T04:52:46;2.20;99.90
7844;DHT22;3967;48.702;9.326;2024-01-30T04:55:13;2.10;99.90
7844;DHT22;3967;48.702;9.326;2024-01-30T04:57:40;2.00;99.90
7844;DHT22;3967;48.702;9.326;2024-01-30T05:00:07;2.00;99.90
7844;DHT22;3967;48.702;9.326;2024-01-30T05:02:34;2.00;99.90
7844;DHT22;3967;48.702;9.326;2024-01-30T05:05:01;2.00;99.90
7844;DHT22;3967;48.702;9.326;2024-01-30T05:07:28;2.00;99.90
7844;DHT22;3967;48.702;9.326;2024-01-30T05:09:55;2.10;99.90
7844;DHT22;3967;48.702;9.326;2024-01-30T05:12:25;2.10;99.90
7844;DHT22;3967;48.702;9.326;2024-01-30T05:14:51;2.00;99.90
7844;DHT22;3967;48.702;9.326;2024-01-30T05:17:18;1.90;99.90
7844;DHT22;3967;48.702;9.326;2024-01-30T05:19:45;1.90;99.90
7844;DHT22;3967;48.702;9.326;2024-01-30T05:22:12;2.00;99.90
7844;DHT22;3967;48.702;9.326;2024-01-30T05:24:42;2.00;99.90
7844;DHT22;3967;48.702;9.326;2024-01-30T05:27:09;2.00;99.90
7844;DHT22;3967;48.702;9.326;2024-01-30T05:29:36;1.80;99.90
7844;DHT22;3967;48.702;9.326;2024-01-30T05:32:03;1.70;99.90
7844;DHT22;3967;48.702;9.326;2024-01-30T05:34:32;1.70;99.90
7844;DHT22;3967;48.702;9.326;2024-01-30T05:36:58;1.70;99.90
7844;DHT22;3967;48.702;9.326;2024-01-30T05:39:25;1.90;99.90
7844;DHT22;3967;48.702;9.326;2024-01-30T05:41:52;1.90;99.90
7844;DHT22;3967;48.702;9.326;2024-01-30T05:44:19;2.00;99.90
7844;DHT22;3967;48.702;9.326;2024-01-30T05:46:45;1.90;99.90
7844;DHT22;3967;48.702;9.326;2024-01-30T05:49:12;1.90;99.90
7844;DHT22;3967;48.702;9.326;2024-01-30T05:51:39;1.90;99.90
7844;DHT22;3967;48.702;9.326;2024-01-30T05:54:06;1.90;99.90
7844;DHT22;3967;48.702;9.326;2024-01-30T05:56:32;2.00;99.90
7844;DHT22;3967;48.702;9.326;2024-01-30T05:58:59;2.00;99.90
7844;DHT22;3967;48.702;9.326;2024-01-30T06:01:26;1.90;99.90
7844;DHT22;3967;48.702;9.326;2024-01-30T06:03:53;2.00;99.90
7844;DHT22;3967;48.702;9.326;2024-01-30T06:06:20;2.00;99.90
7844;DHT22;3967;48.702;9.326;2024-01-30T06:08:47;2.00;99.90
7844;DHT22;3967;48.702;9.326;2024-01-30T06:11:13;2.00;99.90
7844;DHT22;3967;48.702;9.326;2024-01-30T06:13:40;2.00;99.90
7844;DHT22;3967;48.702;9.326;2024-01-30T06:16:09;2.10;99.90
7844;DHT22;3967;48.702;9.326;2024-01-30T06:18:37;2.00;99.90
7844;DHT22;3967;48.702;9.326;2024-01-30T06:21:04;2.00;99.90
7844;DHT22;3967;48.702;9.326;2024-01-30T06:23:31;2.90;99.90
7844;DHT22;3967;48.702;9.326;2024-01-30T06:25:58;2.30;99.90
7844;DHT22;3967;48.702;9.326;2024-01-30T06:28:25;2.10;99.90
7844;DHT22;3967;48.702;9.326;2024-01-30T06:30:51;2.10;99.90
7844;DHT22;3967;48.702;9.326;2024-01-30T06:33:18;2.10;99.90
7844;DHT22;3967;48.702;9.326;2024-01-30T06:35:45;2.00;99.90
7844;DHT22;3967;48.702;9.326;2024-01-30T06:38:12;2.00;99.90
7844;DHT22;3967;48.702;9.326;2024-01-30T06:40:39;2.00;99.90
7844;DHT22;3967;48.702;9.326;2024-01-30T06:43:06;2.00;99.90
7844;DHT22;3967;48.702;9.326;2024-01-30T06:45:34;2.00;99.90
7844;DHT22;3967;48.702;9.326;2024-01-30T06:48:01;1.90;99.90
7844;DHT22;3967;48.702;9.326;2024-01-30T06:50:28;1.80;99.90
7844;DHT22;3967;48.702;9.326;2024-01-30T06:52:55;1.70;99.90
7844;DHT22;3967;48.702;9.326;2024-01-30T06:55:22;1.60;99.90
7844;DHT22;3967;48.702;9.326;2024-01-30T06:57:48;1.60;99.90
7844;DHT22;3967;48.702;9.326;2024-01-30T07:00:17;1.60;99.90
7844;DHT22;3967;48.702;9.326;2024-01-30T07:02:46;1.60;99.90
7844;DHT22;3967;48.702;9.326;2024-01-30T07:05:12;1.60;99.90
7844;DHT22;3967;48.702;9.326;2024-01-30T07:07:40;1.60;99.90
7844;DHT22;3967;48.702;9.326;2024-01-30T07:10:07;1.50;99.90
7844;DHT22;3967;48.702;9.326;2024-01-30T07:12:34;1.60;99.90
7844;DHT22;3967;48.702;9.326;2024-01-30T07:15:01;1.70;99.90
7844;DHT22;3967;48.702;9.326;2024-01-30T07:17:29;1.70;99.90
7844;DHT22;3967;48.702;9.326;2024-01-30T07:19:56;1.70;99.90
7844;DHT22;3967;48.702;9.326;2024-01-30T07:22:23;1.70;99.90
7844;DHT22;3967;48.702;9.326;2024-01-30T07:24:50;1.70;99.90
7844;DHT22;3967;48.702;9.326;2024-01-30T07:27:19;1.70;99.90
7844;DHT22;3967;48.702;9.326;2024-01-30T07:29:46;1.70;99.90
7844;DHT22;3967;48.702;9.326;2024-01-30T07:32:13;1.60;99.90
7844;DHT22;3967;48.702;9.326;2024-01-30T07:34:39;1.70;99.90
7844;DHT22;3967;48.702;9.326;2024-01-30T07:37:24;1.70;99.90
7844;DHT22;3967;48.702;9.326;2024-01-30T07:39:51;1.80;99.90
7844;DHT22;3967;48.702;9.326;2024-01-30T07:42:18;1.90;99.90
7844;DHT22;3967;48.702;9.326;2024-01-30T07:44:45;1.80;99.90
7844;DHT22;3967;48.702;9.326;2024-01-30T07:47:11;1.80;99.90
7844;DHT22;3967;48.702;9.326;2024-01-30T07:49:38;1.80;99.90
7844;DHT22;3967;48.702;9.326;2024-01-30T07:52:05;1.90;99.90
7844;DHT22;3967;48.702;9.326;2024-01-30T07:54:33;2.00;99.90
7844;DHT22;3967;48.702;9.326;2024-01-30T07:57:00;2.10;99.90
7844;DHT22;3967;48.702;9.326;2024-01-30T07:59:27;2.10;99.90
7844;DHT22;3967;48.702;9.326;2024-01-30T08:01:54;2.10;99.90
7844;DHT22;3967;48.702;9.326;2024-01-30T08:04:21;2.00;99.90
7844;DHT22;3967;48.702;9.326;2024-01-30T08:06:48;2.00;99.90
7844;DHT22;3967;48.702;9.326;2024-01-30T08:09:15;2.10;99.90
7844;DHT22;3967;48.702;9.326;2024-01-30T08:11:42;2.20;99.90
7844;DHT22;3967;48.702;9.326;2024-01-30T08:14:09;2.20;99.90
7844;DHT22;3967;48.702;9.326;2024-01-30T08:16:36;2.30;99.90
7844;DHT22;3967;48.702;9.326;2024-01-30T08:19:03;2.30;99.90
7844;DHT22;3967;48.702;9.326;2024-01-30T08:21:29;2.30;99.90
7844;DHT22;3967;48.702;9.326;2024-01-30T08:23:56;2.30;99.90
7844;DHT22;3967;48.702;9.326;2024-01-30T08:26:23;2.20;99.90
7844;DHT22;3967;48.702;9.326;2024-01-30T08:28:50;2.30;99.90
7844;DHT22;3967;48.702;9.326;2024-01-30T08:31:18;2.30;99.90
7844;DHT22;3967;48.702;9.326;2024-01-30T08:33:45;2.30;99.90
7844;DHT22;3967;48.702;9.326;2024-01-30T08:36:15;2.30;99.90
7844;DHT22;3967;48.702;9.326;2024-01-30T08:38:42;2.30;99.90
7844;DHT22;3967;48.702;9.326;2024-01-30T08:41:09;2.40;99.90
7844;DHT22;3967;48.702;9.326;2024-01-30T08:43:35;2.60;99.90
7844;DHT22;3967;48.702;9.326;2024-01-30T08:46:03;2.80;99.90
7844;DHT22;3967;48.702;9.326;2024-01-30T08:48:30;2.90;99.90
7844;DHT22;3967;48.702;9.326;2024-01-30T08:50:56;3.00;99.90
7844;DHT22;3967;48.702;9.326;2024-01-30T08:53:23;3.10;99.90
7844;DHT22;3967;48.702;9.326;2024-01-30T08:55:51;3.20;99.90
7844;DHT22;3967;48.702;9.326;2024-01-30T08:58:18;3.30;99.90
7844;DHT22;3967;48.702;9.326;2024-01-30T09:00:45;3.40;99.90
7844;DHT22;3967;48.702;9.326;2024-01-30T09:03:12;3.40;99.90
7844;DHT22;3967;48.702;9.326;2024-01-30T09:05:39;3.40;99.90
7844;DHT22;3967;48.702;9.326;2024-01-30T09:08:06;3.50;99.90
7844;DHT22;3967;48.702;9.326;2024-01-30T09:10:35;3.50;99.90
7844;DHT22;3967;48.702;9.326;2024-01-30T09:13:01;3.60;99.90
7844;DHT22;3967;48.702;9.326;2024-01-30T09:15:28;3.70;99.90
7844;DHT22;3967;48.702;9.326;2024-01-30T09:17:55;3.80;99.90
7844;DHT22;3967;48.702;9.326;2024-01-30T09:20:22;3.90;99.90
7844;DHT22;3967;48.702;9.326;2024-01-30T09:22:49;3.90;99.90
7844;DHT22;3967;48.702;9.326;2024-01-30T09:25:16;3.90;99.90
7844;DHT22;3967;48.702;9.326;2024-01-30T09:27:45;4.10;99.90
7844;DHT22;3967;48.702;9.326;2024-01-30T09:30:12;4.30;99.90
7844;DHT22;3967;48.702;9.326;2024-01-30T09:32:43;4.40;99.50
7844;DHT22;3967;48.702;9.326;2024-01-30T09:35:10;4.30;98.70
7844;DHT22;3967;48.702;9.326;2024-01-30T09:37:37;4.40;98.90
7844;DHT22;3967;48.702;9.326;2024-01-30T09:40:04;4.40;98.70
7844;DHT22;3967;48.702;9.326;2024-01-30T09:42:35;4.40;99.10
7844;DHT22;3967;48.702;9.326;2024-01-30T09:45:04;4.40;99.00
7844;DHT22;3967;48.702;9.326;2024-01-30T09:47:41;4.40;99.00
7844;DHT22;3967;48.702;9.326;2024-01-30T09:50:12;4.40;98.80
7844;DHT22;3967;48.702;9.326;2024-01-30T09:52:40;4.40;98.80
7844;DHT22;3967;48.702;9.326;2024-01-30T09:55:07;4.40;98.60
7844;DHT22;3967;48.702;9.326;2024-01-30T09:57:35;4.50;98.70
7844;DHT22;3967;48.702;9.326;2024-01-30T10:00:06;4.50;98.90
7844;DHT22;3967;48.702;9.326;2024-01-30T10:02:36;4.60;99.00
7844;DHT22;3967;48.702;9.326;2024-01-30T10:05:03;4.80;98.40
7844;DHT22;3967;48.702;9.326;2024-01-30T10:07:30;4.90;97.90
7844;DHT22;3967;48.702;9.326;2024-01-30T10:09:57;4.90;97.70
7844;DHT22;3967;48.702;9.326;2024-01-30T10:12:29;5.00;97.70
7844;DHT22;3967;48.702;9.326;2024-01-30T10:14:56;5.00;97.50
7844;DHT22;3967;48.702;9.326;2024-01-30T10:17:25;5.10;97.60
7844;DHT22;3967;48.702;9.326;2024-01-30T10:19:59;5.10;97.30
7844;DHT22;3967;48.702;9.326;2024-01-30T10:22:27;5.20;97.20
7844;DHT22;3967;48.702;9.326;2024-01-30T10:24:54;5.30;96.80
7844;DHT22;3967;48.702;9.326;2024-01-30T10:27:27;5.50;96.40
7844;DHT22;3967;48.702;9.326;2024-01-30T10:29:56;5.70;95.60
7844;DHT22;3967;48.702;9.326;2024-01-30T10:32:23;5.80;95.50
7844;DHT22;3967;48.702;9.326;2024-01-30T10:34:50;5.90;95.40
7844;DHT22;3967;48.702;9.326;2024-01-30T10:37:19;5.90;95.20
7844;DHT22;3967;48.702;9.326;2024-01-30T10:39:48;6.00;95.00
7844;DHT22;3967;48.702;9.326;2024-01-30T10:42:18;6.00;95.30
7844;DHT22;3967;48.702;9.326;2024-01-30T10:44:52;6.10;95.50
7844;DHT22;3967;48.702;9.326;2024-01-30T10:47:28;6.20;95.50
7844;DHT22;3967;48.702;9.326;2024-01-30T10:49:56;6.30;95.60
7844;DHT22;3967;48.702;9.326;2024-01-30T10:52:24;6.40;95.40
7844;DHT22;3967;48.702;9.326;2024-01-30T10:54:54;6.40;95.50
7844;DHT22;3967;48.702;9.326;2024-01-30T10:57:23;6.40;95.40
7844;DHT22;3967;48.702;9.326;2024-01-30T10:59:53;6.40;95.40
7844;DHT22;3967;48.702;9.326;2024-01-30T11:02:22;6.40;95.50
7844;DHT22;3967;48.702;9.326;2024-01-30T11:04:57;6.40;95.50
7844;DHT22;3967;48.702;9.326;2024-01-30T11:07:27;6.50;95.60
7844;DHT22;3967;48.702;9.326;2024-01-30T11:12:25;6.60;94.90
7844;DHT22;3967;48.702;9.326;2024-01-30T11:15:13;6.70;94.70
7844;DHT22;3967;48.702;9.326;2024-01-30T11:20:26;6.80;94.20
7844;DHT22;3967;48.702;9.326;2024-01-30T11:22:55;6.80;94.00
7844;DHT22;3967;48.702;9.326;2024-01-30T11:25:23;6.90;94.50
7844;DHT22;3967;48.702;9.326;2024-01-30T11:27:52;6.90;94.30
7844;DHT22;3967;48.702;9.326;2024-01-30T11:30:28;6.90;94.50
7844;DHT22;3967;48.702;9.326;2024-01-30T11:35:26;7.10;94.00
7844;DHT22;3967;48.702;9.326;2024-01-30T11:37:54;7.20;94.50
7844;DHT22;3967;48.702;9.326;2024-01-30T11:40:21;7.20;94.10
7844;DHT22;3967;48.702;9.326;2024-01-30T11:42:48;7.20;94.00
7844;DHT22;3967;48.702;9.326;2024-01-30T11:45:17;7.30;93.90
7844;DHT22;3967;48.702;9.326;2024-01-30T11:47:44;7.30;93.80
7844;DHT22;3967;48.702;9.326;2024-01-30T11:50:11;7.50;93.80
7844;DHT22;3967;48.702;9.326;2024-01-30T11:52:38;7.40;93.80
7844;DHT22;3967;48.702;9.326;2024-01-30T11:55:05;7.40;94.10
7844;DHT22;3967;48.702;9.326;2024-01-30T11:57:32;7.40;94.00
7844;DHT22;3967;48.702;9.326;2024-01-30T12:00:02;7.50;94.30
7844;DHT22;3967;48.702;9.326;2024-01-30T12:02:30;7.50;94.20
7844;DHT22;3967;48.702;9.326;2024-01-30T12:04:57;7.60;94.20
7844;DHT22;3967;48.702;9.326;2024-01-30T12:07:25;7.60;93.60
7844;DHT22;3967;48.702;9.326;2024-01-30T12:09:53;7.70;93.10
7844;DHT22;3967;48.702;9.326;2024-01-30T12:12:28;7.70;92.90
7844;DHT22;3967;48.702;9.326;2024-01-30T12:14:56;7.70;92.80
7844;DHT22;3967;48.702;9.326;2024-01-30T12:17:26;7.70;92.80
7844;DHT22;3967;48.702;9.326;2024-01-30T12:20:06;7.70;92.70
7844;DHT22;3967;48.702;9.326;2024-01-30T12:22:41;7.80;92.60
7844;DHT22;3967;48.702;9.326;2024-01-30T12:25:12;7.90;92.10
7844;DHT22;3967;48.702;9.326;2024-01-30T12:27:44;7.80;92.10
7844;DHT22;3967;48.702;9.326;2024-01-30T12:30:14;7.80;92.80
7844;DHT22;3967;48.702;9.326;2024-01-30T12:32:42;7.80;92.90
7844;DHT22;3967;48.702;9.326;2024-01-30T12:35:10;7.80;92.90
7844;DHT22;3967;48.702;9.326;2024-01-30T12:37:38;8.00;93.00
7844;DHT22;3967;48.702;9.326;2024-01-30T12:40:07;8.00;92.80
7844;DHT22;3967;48.702;9.326;2024-01-30T12:42:35;8.00;93.00
7844;DHT22;3967;48.702;9.326;2024-01-30T12:45:04;8.10;93.30
7844;DHT22;3967;48.702;9.326;2024-01-30T12:47:31;8.20;93.00
7844;DHT22;3967;48.702;9.326;2024-01-30T12:49:58;8.10;92.60
7844;DHT22;3967;48.702;9.326;2024-01-30T12:52:25;8.10;92.80
7844;DHT22;3967;48.702;9.326;2024-01-30T12:54:52;8.20;93.20
7844;DHT22;3967;48.702;9.326;2024-01-30T12:57:19;8.30;93.10
7844;DHT22;3967;48.702;9.326;2024-01-30T12:59:46;8.30;92.90
7844;DHT22;3967;48.702;9.326;2024-01-30T13:02:13;8.40;93.20
7844;DHT22;3967;48.702;9.326;2024-01-30T13:04:41;8.40;93.10
7844;DHT22;3967;48.702;9.326;2024-01-30T13:07:10;8.50;93.20
7844;DHT22;3967;48.702;9.326;2024-01-30T13:09:37;8.60;93.10
7844;DHT22;3967;48.702;9.326;2024-01-30T13:12:04;8.70;93.30
7844;DHT22;3967;48.702;9.326;2024-01-30T13:14:31;8.80;92.90
7844;DHT22;3967;48.702;9.326;2024-01-30T13:16:58;8.90;92.90
7844;DHT22;3967;48.702;9.326;2024-01-30T13:19:25;9.00;92.70
7844;DHT22;3967;48.702;9.326;2024-01-30T13:21:52;9.10;92.10
7844;DHT22;3967;48.702;9.326;2024-01-30T13:24:19;9.10;92.00
7844;DHT22;3967;48.702;9.326;2024-01-30T13:26:48;9.10;92.00
7844;DHT22;3967;48.702;9.326;2024-01-30T13:29:15;9.20;92.00
7844;DHT22;3967;48.702;9.326;2024-01-30T13:31:42;9.20;92.10
7844;DHT22;3967;48.702;9.326;2024-01-30T13:34:11;9.20;91.80
7844;DHT22;3967;48.702;9.326;2024-01-30T13:36:38;9.20;91.70
7844;DHT22;3967;48.702;9.326;2024-01-30T13:39:05;9.20;91.80
7844;DHT22;3967;48.702;9.326;2024-01-30T13:41:36;9.30;92.20
7844;DHT22;3967;48.702;9.326;2024-01-30T13:44:04;9.30;91.80
7844;DHT22;3967;48.702;9.326;2024-01-30T13:46:31;9.30;91.70
7844;DHT22;3967;48.702;9.326;2024-01-30T13:48:58;9.30;91.70
7844;DHT22;3967;48.702;9.326;2024-01-30T13:51:27;9.40;91.60
7844;DHT22;3967;48.702;9.326;2024-01-30T13:53:53;9.40;91.30
7844;DHT22;3967;48.702;9.326;2024-01-30T13:56:20;9.40;91.40
7844;DHT22;3967;48.702;9.326;2024-01-30T13:58:51;9.50;91.20
7844;DHT22;3967;48.702;9.326;2024-01-30T14:01:17;9.40;91.10
7844;DHT22;3967;48.702;9.326;2024-01-30T14:03:45;9.50;91.30
7844;DHT22;3967;48.702;9.326;2024-01-30T14:06:12;9.50;91.20
7844;DHT22;3967;48.702;9.326;2024-01-30T14:08:39;9.60;91.20
7844;DHT22;3967;48.702;9.326;2024-01-30T14:11:09;9.50;90.90
7844;DHT22;3967;48.702;9.326;2024-01-30T14:13:38;9.40;90.80
7844;DHT22;3967;48.702;9.326;2024-01-30T14:16:06;9.40;91.00
7844;DHT22;3967;48.702;9.326;2024-01-30T14:18:34;9.40;90.90
7844;DHT22;3967;48.702;9.326;2024-01-30T14:21:00;9.40;91.00
7844;DHT22;3967;48.702;9.326;2024-01-30T14:23:27;9.40;90.90
7844;DHT22;3967;48.702;9.326;2024-01-30T14:25:54;9.40;91.00
7844;DHT22;3967;48.702;9.326;2024-01-30T14:28:21;9.50;91.00
7844;DHT22;3967;48.702;9.326;2024-01-30T14:30:48;9.60;90.90
7844;DHT22;3967;48.702;9.326;2024-01-30T14:33:15;9.60;91.00
7844;DHT22;3967;48.702;9.326;2024-01-30T14:35:42;9.60;91.10
7844;DHT22;3967;48.702;9.326;2024-01-30T14:38:08;9.60;91.60
7844;DHT22;3967;48.702;9.326;2024-01-30T14:40:38;9.60;91.80
7844;DHT22;3967;48.702;9.326;2024-01-30T14:43:05;9.60;91.70
7844;DHT22;3967;48.702;9.326;2024-01-30T14:45:32;9.50;91.80
7844;DHT22;3967;48.702;9.326;2024-01-30T14:47:59;9.50;91.40
7844;DHT22;3967;48.702;9.326;2024-01-30T14:50:26;9.60;91.20
7844;DHT22;3967;48.702;9.326;2024-01-30T14:52:56;9.70;90.80
7844;DHT22;3967;48.702;9.326;2024-01-30T14:55:22;9.60;90.50
7844;DHT22;3967;48.702;9.326;2024-01-30T14:57:50;9.60;90.70
7844;DHT22;3967;48.702;9.326;2024-01-30T15:00:17;9.70;90.70
7844;DHT22;3967;48.702;9.326;2024-01-30T15:02:44;9.80;90.60
7844;DHT22;3967;48.702;9.326;2024-01-30T15:05:13;9.80;90.30
7844;DHT22;3967;48.702;9.326;2024-01-30T15:07:41;9.90;90.10
7844;DHT22;3967;48.702;9.326;2024-01-30T15:10:08;9.90;89.70
7844;DHT22;3967;48.702;9.326;2024-01-30T15:12:37;9.90;89.80
7844;DHT22;3967;48.702;9.326;2024-01-30T15:15:06;9.80;90.20
7844;DHT22;3967;48.702;9.326;2024-01-30T15:17:34;9.80;90.80
7844;DHT22;3967;48.702;9.326;2024-01-30T15:20:01;9.80;90.60
7844;DHT22;3967;48.702;9.326;2024-01-30T15:22:28;9.70;90.90
7844;DHT22;3967;48.702;9.326;2024-01-30T15:24:55;9.70;91.00
7844;DHT22;3967;48.702;9.326;2024-01-30T15:27:22;9.70;91.10
7844;DHT22;3967;48.702;9.326;2024-01-30T15:29:52;9.60;91.30
7844;DHT22;3967;48.702;9.326;2024-01-30T15:32:19;9.60;91.40
7844;DHT22;3967;48.702;9.326;2024-01-30T15:34:46;9.60;91.50
7844;DHT22;3967;48.702;9.326;2024-01-30T15:37:13;9.60;91.40
7844;DHT22;3967;48.702;9.326;2024-01-30T15:39:39;9.60;91.60
7844;DHT22;3967;48.702;9.326;2024-01-30T15:42:06;9.60;91.20
7844;DHT22;3967;48.702;9.326;2024-01-30T15:44:33;9.60;90.90
7844;DHT22;3967;48.702;9.326;2024-01-30T15:47:01;9.60;90.70
7844;DHT22;3967;48.702;9.326;2024-01-30T15:49:27;9.60;90.40
7844;DHT22;3967;48.702;9.326;2024-01-30T15:51:54;9.50;90.30
7844;DHT22;3967;48.702;9.326;2024-01-30T15:54:21;9.60;90.30
7844;DHT22;3967;48.702;9.326;2024-01-30T15:56:48;9.50;90.40
7844;DHT22;3967;48.702;9.326;2024-01-30T15:59:15;9.30;90.50
7844;DHT22;3967;48.702;9.326;2024-01-30T16:01:42;9.30;90.80
7844;DHT22;3967;48.702;9.326;2024-01-30T16:04:15;9.20;90.70
7844;DHT22;3967;48.702;9.326;2024-01-30T16:06:42;9.20;90.80
7844;DHT22;3967;48.702;9.326;2024-01-30T16:09:09;9.20;90.90
7844;DHT22;3967;48.702;9.326;2024-01-30T16:11:36;9.10;91.00
7844;DHT22;3967;48.702;9.326;2024-01-30T16:14:03;9.10;91.20
7844;DHT22;3967;48.702;9.326;2024-01-30T16:16:30;8.90;91.40
7844;DHT22;3967;48.702;9.326;2024-01-30T16:18:57;9.00;91.20
7844;DHT22;3967;48.702;9.326;2024-01-30T16:21:24;8.90;91.20
7844;DHT22;3967;48.702;9.326;2024-01-30T16:23:51;8.90;91.20
7844;DHT22;3967;48.702;9.326;2024-01-30T16:26:17;8.90;90.90